sensor_id;sensor_type;location;lat;lon;timestamp;P1;durP1;ratioP1;P2;durP2;ratioP2
41568;SDS011;27283;52.504;13.358;2023-07-13T00:01:23;8.63;;;3.33;;
41568;SDS011;27283;52.504;13.358;2023-07-13T00:04:00;6.28;;;3.03;;
41568;SDS011;27283;52.504;13.358;2023-07-13T00:06:40;5.00;;;3.00;;
41568;SDS011;27283;52.504;13.358;2023-07-13T00:09:14;8.77;;;2.97;;
41568;SDS011;27283;52.504;13.358;2023-07-13T00:11:50;5.60;;;3.30;;
41568;SDS011;27283;52.504;13.358;2023-07-13T00:14:27;6.35;;;2.90;;
41568;SDS011;27283;52.504;13.358;2023-07-13T00:17:02;8.55;;;3.17;;
41568;SDS011;27283;52.504;13.358;2023-07-13T00:19:35;6.68;;;3.33;;
41568;SDS011;27283;52.504;13.358;2023-07-13T00:22:12;6.75;;;3.22;;
41568;SDS011;27283;52.504;13.358;2023-07-13T00:24:45;6.95;;;3.25;;
41568;SDS011;27283;52.504;13.358;2023-07-13T00:27:18;5.78;;;2.90;;
41568;SDS011;27283;52.504;13.358;2023-07-13T00:29:52;6.18;;;3.10;;
41568;SDS011;27283;52.504;13.358;2023-07-13T00:32:25;7.20;;;2.80;;
41568;SDS011;27283;52.504;13.358;2023-07-13T00:34:59;5.22;;;2.92;;
41568;SDS011;27283;52.504;13.358;2023-07-13T00:37:38;6.10;;;3.20;;
41568;SDS011;27283;52.504;13.358;2023-07-13T00:40:15;7.03;;;3.40;;
41568;SDS011;27283;52.504;13.358;2023-07-13T00:42:51;6.57;;;3.30;;
41568;SDS011;27283;52.504;13.358;2023-07-13T00:48:28;6.75;;;3.28;;
41568;SDS011;27283;52.504;13.358;2023-07-13T00:51:04;6.65;;;3.15;;
41568;SDS011;27283;52.504;13.358;2023-07-13T00:53:41;9.43;;;3.63;;
41568;SDS011;27283;52.504;13.358;2023-07-13T00:56:21;7.60;;;3.20;;
41568;SDS011;27283;52.504;13.358;2023-07-13T00:59:05;7.60;;;3.47;;
41568;SDS011;27283;52.504;13.358;2023-07-13T01:01:42;7.55;;;3.40;;
41568;SDS011;27283;52.504;13.358;2023-07-13T01:04:16;6.35;;;3.50;;
41568;SDS011;27283;52.504;13.358;2023-07-13T01:06:50;5.85;;;3.30;;
41568;SDS011;27283;52.504;13.358;2023-07-13T01:09:27;7.88;;;3.38;;
41568;SDS011;27283;52.504;13.358;2023-07-13T01:12:02;7.78;;;3.30;;
41568;SDS011;27283;52.504;13.358;2023-07-13T01:14:39;7.35;;;3.97;;
41568;SDS011;27283;52.504;13.358;2023-07-13T01:17:13;8.07;;;3.97;;
41568;SDS011;27283;52.504;13.358;2023-07-13T01:19:46;7.53;;;3.60;;
41568;SDS011;27283;52.504;13.358;2023-07-13T01:22:22;6.78;;;4.28;;
41568;SDS011;27283;52.504;13.358;2023-07-13T01:24:59;9.40;;;3.85;;
41568;SDS011;27283;52.504;13.358;2023-07-13T01:27:32;7.00;;;4.10;;
41568;SDS011;27283;52.504;13.358;2023-07-13T01:30:06;6.78;;;4.00;;
41568;SDS011;27283;52.504;13.358;2023-07-13T01:32:46;6.93;;;4.25;;
41568;SDS011;27283;52.504;13.358;2023-07-13T01:35:20;6.65;;;3.85;;
41568;SDS011;27283;52.504;13.358;2023-07-13T01:38:20;8.98;;;4.20;;
41568;SDS011;27283;52.504;13.358;2023-07-13T01:41:00;8.75;;;4.07;;
41568;SDS011;27283;52.504;13.358;2023-07-13T01:43:33;8.85;;;3.50;;
41568;SDS011;27283;52.504;13.358;2023-07-13T01:46:07;7.85;;;3.90;;
41568;SDS011;27283;52.504;13.358;2023-07-13T01:48:53;9.32;;;4.00;;
41568;SDS011;27283;52.504;13.358;2023-07-13T01:51:26;6.55;;;4.10;;
41568;SDS011;27283;52.504;13.358;2023-07-13T01:54:02;7.47;;;4.30;;
41568;SDS011;27283;52.504;13.358;2023-07-13T01:56:35;5.97;;;4.05;;
41568;SDS011;27283;52.504;13.358;2023-07-13T01:59:09;6.53;;;3.85;;
41568;SDS011;27283;52.504;13.358;2023-07-13T02:01:42;8.57;;;4.10;;
41568;SDS011;27283;52.504;13.358;2023-07-13T02:04:17;7.85;;;3.72;;
41568;SDS011;27283;52.504;13.358;2023-07-13T02:06:53;8.45;;;3.70;;
41568;SDS011;27283;52.504;13.358;2023-07-13T02:09:31;7.75;;;4.10;;
41568;SDS011;27283;52.504;13.358;2023-07-13T02:12:10;6.95;;;4.13;;
41568;SDS011;27283;52.504;13.358;2023-07-13T02:14:43;7.07;;;3.97;;
41568;SDS011;27283;52.504;13.358;2023-07-13T02:17:16;6.65;;;4.03;;
41568;SDS011;27283;52.504;13.358;2023-07-13T02:19:49;6.25;;;4.05;;
41568;SDS011;27283;52.504;13.358;2023-07-13T02:22:24;8.55;;;4.35;;
41568;SDS011;27283;52.504;13.358;2023-07-13T02:24:59;12.15;;;4.10;;
41568;SDS011;27283;52.504;13.358;2023-07-13T02:27:32;8.82;;;3.75;;
41568;SDS011;27283;52.504;13.358;2023-07-13T02:30:06;8.18;;;3.90;;
41568;SDS011;27283;52.504;13.358;2023-07-13T02:32:44;8.90;;;4.05;;
41568;SDS011;27283;52.504;13.358;2023-07-13T02:35:16;9.95;;;4.32;;
41568;SDS011;27283;52.504;13.358;2023-07-13T02:37:50;7.47;;;4.03;;
41568;SDS011;27283;52.504;13.358;2023-07-13T02:40:35;8.85;;;4.43;;
41568;SDS011;27283;52.504;13.358;2023-07-13T02:43:12;8.75;;;4.30;;
41568;SDS011;27283;52.504;13.358;2023-07-13T02:45:45;8.63;;;4.20;;
41568;SDS011;27283;52.504;13.358;2023-07-13T02:48:19;7.72;;;4.15;;
41568;SDS011;27283;52.504;13.358;2023-07-13T02:50:51;8.38;;;4.20;;
41568;SDS011;27283;52.504;13.358;2023-07-13T02:53:28;8.45;;;4.38;;
41568;SDS011;27283;52.504;13.358;2023-07-13T02:56:03;7.80;;;4.03;;
41568;SDS011;27283;52.504;13.358;2023-07-13T02:58:38;8.75;;;4.40;;
41568;SDS011;27283;52.504;13.358;2023-07-13T03:01:10;9.80;;;4.60;;
41568;SDS011;27283;52.504;13.358;2023-07-13T03:03:48;9.25;;;4.63;;
41568;SDS011;27283;52.504;13.358;2023-07-13T03:06:21;8.27;;;4.20;;
41568;SDS011;27283;52.504;13.358;2023-07-13T03:08:54;8.55;;;4.55;;
41568;SDS011;27283;52.504;13.358;2023-07-13T03:11:31;10.13;;;4.70;;
41568;SDS011;27283;52.504;13.358;2023-07-13T03:14:03;7.82;;;4.35;;
41568;SDS011;27283;52.504;13.358;2023-07-13T03:16:36;7.80;;;4.68;;
41568;SDS011;27283;52.504;13.358;2023-07-13T03:19:09;10.02;;;4.57;;
41568;SDS011;27283;52.504;13.358;2023-07-13T03:21:41;9.05;;;4.70;;
41568;SDS011;27283;52.504;13.358;2023-07-13T03:24:14;6.90;;;4.18;;
41568;SDS011;27283;52.504;13.358;2023-07-13T03:26:49;8.05;;;4.50;;
41568;SDS011;27283;52.504;13.358;2023-07-13T03:29:22;8.52;;;4.13;;
41568;SDS011;27283;52.504;13.358;2023-07-13T03:31:54;7.10;;;4.35;;
41568;SDS011;27283;52.504;13.358;2023-07-13T03:34:27;6.38;;;4.13;;
41568;SDS011;27283;52.504;13.358;2023-07-13T03:36:59;7.05;;;4.22;;
41568;SDS011;27283;52.504;13.358;2023-07-13T03:39:32;8.43;;;3.70;;
41568;SDS011;27283;52.504;13.358;2023-07-13T03:42:10;8.60;;;3.70;;
41568;SDS011;27283;52.504;13.358;2023-07-13T03:44:43;8.32;;;3.97;;
41568;SDS011;27283;52.504;13.358;2023-07-13T03:47:20;10.10;;;4.22;;
41568;SDS011;27283;52.504;13.358;2023-07-13T03:49:53;6.90;;;3.53;;
41568;SDS011;27283;52.504;13.358;2023-07-13T03:52:25;8.23;;;3.65;;
41568;SDS011;27283;52.504;13.358;2023-07-13T03:55:01;8.07;;;3.70;;
41568;SDS011;27283;52.504;13.358;2023-07-13T03:57:37;8.90;;;3.60;;
41568;SDS011;27283;52.504;13.358;2023-07-13T04:00:11;6.63;;;3.38;;
41568;SDS011;27283;52.504;13.358;2023-07-13T04:02:47;7.22;;;3.47;;
41568;SDS011;27283;52.504;13.358;2023-07-13T04:05:23;5.57;;;3.08;;
41568;SDS011;27283;52.504;13.358;2023-07-13T04:07:55;8.27;;;3.75;;
41568;SDS011;27283;52.504;13.358;2023-07-13T04:10:28;8.65;;;3.67;;
41568;SDS011;27283;52.504;13.358;2023-07-13T04:13:09;8.88;;;3.40;;
41568;SDS011;27283;52.504;13.358;2023-07-13T04:15:56;5.60;;;3.10;;
41568;SDS011;27283;52.504;13.358;2023-07-13T04:18:41;5.93;;;3.05;;
41568;SDS011;27283;52.504;13.358;2023-07-13T04:21:14;6.93;;;3.30;;
41568;SDS011;27283;52.504;13.358;2023-07-13T04:23:47;7.05;;;3.40;;
41568;SDS011;27283;52.504;13.358;2023-07-13T04:26:20;5.15;;;3.00;;
41568;SDS011;27283;52.504;13.358;2023-07-13T04:28:56;8.32;;;2.97;;
41568;SDS011;27283;52.504;13.358;2023-07-13T04:31:29;7.95;;;3.58;;
41568;SDS011;27283;52.504;13.358;2023-07-13T04:34:02;10.35;;;3.70;;
41568;SDS011;27283;52.504;13.358;2023-07-13T04:36:35;6.10;;;3.38;;
41568;SDS011;27283;52.504;13.358;2023-07-13T04:39:08;7.82;;;3.40;;
41568;SDS011;27283;52.504;13.358;2023-07-13T04:41:41;6.35;;;3.38;;
41568;SDS011;27283;52.504;13.358;2023-07-13T04:47:13;17.27;;;4.18;;
41568;SDS011;27283;52.504;13.358;2023-07-13T04:49:45;10.18;;;3.30;;
41568;SDS011;27283;52.504;13.358;2023-07-13T04:52:22;8.75;;;3.45;;
41568;SDS011;27283;52.504;13.358;2023-07-13T04:54:55;6.05;;;3.60;;
41568;SDS011;27283;52.504;13.358;2023-07-13T04:57:28;7.82;;;3.30;;
41568;SDS011;27283;52.504;13.358;2023-07-13T05:00:08;7.95;;;3.10;;
41568;SDS011;27283;52.504;13.358;2023-07-13T05:02:43;5.18;;;3.30;;
41568;SDS011;27283;52.504;13.358;2023-07-13T05:05:17;6.68;;;3.00;;
41568;SDS011;27283;52.504;13.358;2023-07-13T05:07:49;8.50;;;3.33;;
41568;SDS011;27283;52.504;13.358;2023-07-13T05:10:22;8.90;;;2.65;;
41568;SDS011;27283;52.504;13.358;2023-07-13T05:12:55;6.82;;;3.08;;
41568;SDS011;27283;52.504;13.358;2023-07-13T05:15:30;5.65;;;2.80;;
41568;SDS011;27283;52.504;13.358;2023-07-13T05:18:08;4.07;;;2.30;;
41568;SDS011;27283;52.504;13.358;2023-07-13T05:20:40;5.70;;;2.28;;
41568;SDS011;27283;52.504;13.358;2023-07-13T05:23:15;5.30;;;2.28;;
41568;SDS011;27283;52.504;13.358;2023-07-13T05:25:48;6.25;;;2.17;;
41568;SDS011;27283;52.504;13.358;2023-07-13T05:28:21;5.57;;;2.40;;
41568;SDS011;27283;52.504;13.358;2023-07-13T05:31:00;6.28;;;2.35;;
41568;SDS011;27283;52.504;13.358;2023-07-13T05:33:33;5.53;;;2.13;;
41568;SDS011;27283;52.504;13.358;2023-07-13T05:36:06;7.35;;;2.70;;
41568;SDS011;27283;52.504;13.358;2023-07-13T05:38:39;6.13;;;2.58;;
41568;SDS011;27283;52.504;13.358;2023-07-13T05:41:11;7.18;;;2.30;;
41568;SDS011;27283;52.504;13.358;2023-07-13T05:43:44;7.25;;;2.70;;
41568;SDS011;27283;52.504;13.358;2023-07-13T05:46:19;6.50;;;3.08;;
41568;SDS011;27283;52.504;13.358;2023-07-13T05:48:52;7.25;;;2.80;;
41568;SDS011;27283;52.504;13.358;2023-07-13T05:51:24;5.47;;;2.50;;
41568;SDS011;27283;52.504;13.358;2023-07-13T05:53:57;7.38;;;2.58;;
41568;SDS011;27283;52.504;13.358;2023-07-13T05:56:30;5.45;;;2.20;;
41568;SDS011;27283;52.504;13.358;2023-07-13T05:59:03;6.93;;;2.30;;
41568;SDS011;27283;52.504;13.358;2023-07-13T06:01:38;7.07;;;2.30;;
41568;SDS011;27283;52.504;13.358;2023-07-13T06:04:11;6.78;;;2.40;;
41568;SDS011;27283;52.504;13.358;2023-07-13T06:06:43;7.50;;;2.47;;
41568;SDS011;27283;52.504;13.358;2023-07-13T06:09:16;6.93;;;2.80;;
41568;SDS011;27283;52.504;13.358;2023-07-13T06:11:48;6.88;;;2.60;;
41568;SDS011;27283;52.504;13.358;2023-07-13T06:14:22;7.70;;;2.25;;
41568;SDS011;27283;52.504;13.358;2023-07-13T06:16:57;5.78;;;2.30;;
41568;SDS011;27283;52.504;13.358;2023-07-13T06:19:31;5.78;;;2.30;;
41568;SDS011;27283;52.504;13.358;2023-07-13T06:22:07;5.25;;;1.98;;
41568;SDS011;27283;52.504;13.358;2023-07-13T06:24:40;7.05;;;2.42;;
41568;SDS011;27283;52.504;13.358;2023-07-13T06:27:16;7.25;;;2.28;;
41568;SDS011;27283;52.504;13.358;2023-07-13T06:29:50;6.28;;;2.30;;
41568;SDS011;27283;52.504;13.358;2023-07-13T06:32:25;7.15;;;2.60;;
41568;SDS011;27283;52.504;13.358;2023-07-13T06:34:58;5.15;;;2.30;;
41568;SDS011;27283;52.504;13.358;2023-07-13T06:37:31;6.20;;;2.22;;
41568;SDS011;27283;52.504;13.358;2023-07-13T06:40:05;9.43;;;2.40;;
41568;SDS011;27283;52.504;13.358;2023-07-13T06:42:39;7.95;;;2.50;;
41568;SDS011;27283;52.504;13.358;2023-07-13T06:45:12;7.28;;;2.10;;
41568;SDS011;27283;52.504;13.358;2023-07-13T06:47:48;8.63;;;2.28;;
41568;SDS011;27283;52.504;13.358;2023-07-13T06:50:22;5.80;;;2.00;;
41568;SDS011;27283;52.504;13.358;2023-07-13T06:52:54;6.68;;;2.03;;
41568;SDS011;27283;52.504;13.358;2023-07-13T06:55:28;5.63;;;2.10;;
41568;SDS011;27283;52.504;13.358;2023-07-13T06:58:01;6.72;;;2.20;;
41568;SDS011;27283;52.504;13.358;2023-07-13T07:00:35;7.57;;;1.90;;
41568;SDS011;27283;52.504;13.358;2023-07-13T07:03:11;4.80;;;1.50;;
41568;SDS011;27283;52.504;13.358;2023-07-13T07:05:45;6.88;;;2.00;;
41568;SDS011;27283;52.504;13.358;2023-07-13T07:08:17;4.20;;;2.05;;
41568;SDS011;27283;52.504;13.358;2023-07-13T07:10:51;8.07;;;1.95;;
41568;SDS011;27283;52.504;13.358;2023-07-13T07:13:23;5.18;;;1.75;;
41568;SDS011;27283;52.504;13.358;2023-07-13T07:15:59;5.18;;;1.80;;
41568;SDS011;27283;52.504;13.358;2023-07-13T07:18:38;9.35;;;1.73;;
41568;SDS011;27283;52.504;13.358;2023-07-13T07:21:12;8.32;;;2.00;;
41568;SDS011;27283;52.504;13.358;2023-07-13T07:23:49;5.47;;;1.92;;
41568;SDS011;27283;52.504;13.358;2023-07-13T07:26:31;3.72;;;1.70;;
41568;SDS011;27283;52.504;13.358;2023-07-13T07:29:24;5.80;;;1.92;;
41568;SDS011;27283;52.504;13.358;2023-07-13T07:32:00;4.45;;;1.60;;
41568;SDS011;27283;52.504;13.358;2023-07-13T07:34:59;6.88;;;1.90;;
41568;SDS011;27283;52.504;13.358;2023-07-13T07:37:32;4.90;;;1.80;;
41568;SDS011;27283;52.504;13.358;2023-07-13T07:40:08;5.95;;;1.90;;
41568;SDS011;27283;52.504;13.358;2023-07-13T07:42:44;8.15;;;1.63;;
41568;SDS011;27283;52.504;13.358;2023-07-13T07:45:17;4.18;;;1.80;;
41568;SDS011;27283;52.504;13.358;2023-07-13T07:47:51;8.35;;;1.50;;
41568;SDS011;27283;52.504;13.358;2023-07-13T07:50:30;3.33;;;1.60;;
41568;SDS011;27283;52.504;13.358;2023-07-13T07:53:06;6.03;;;1.70;;
41568;SDS011;27283;52.504;13.358;2023-07-13T07:55:42;4.60;;;1.55;;
41568;SDS011;27283;52.504;13.358;2023-07-13T07:58:21;6.13;;;1.70;;
41568;SDS011;27283;52.504;13.358;2023-07-13T08:01:03;6.82;;;1.70;;
41568;SDS011;27283;52.504;13.358;2023-07-13T08:03:43;3.83;;;1.67;;
41568;SDS011;27283;52.504;13.358;2023-07-13T08:06:21;3.75;;;1.80;;
41568;SDS011;27283;52.504;13.358;2023-07-13T08:09:16;5.20;;;1.73;;
41568;SDS011;27283;52.504;13.358;2023-07-13T08:11:55;3.83;;;1.80;;
41568;SDS011;27283;52.504;13.358;2023-07-13T08:14:32;5.47;;;1.73;;
41568;SDS011;27283;52.504;13.358;2023-07-13T08:17:20;6.55;;;1.90;;
41568;SDS011;27283;52.504;13.358;2023-07-13T08:19:57;4.25;;;1.75;;
41568;SDS011;27283;52.504;13.358;2023-07-13T08:22:38;5.55;;;1.98;;
41568;SDS011;27283;52.504;13.358;2023-07-13T08:25:15;6.00;;;2.10;;
41568;SDS011;27283;52.504;13.358;2023-07-13T08:27:49;6.75;;;2.10;;
41568;SDS011;27283;52.504;13.358;2023-07-13T08:30:22;6.70;;;2.17;;
41568;SDS011;27283;52.504;13.358;2023-07-13T08:32:58;5.53;;;1.88;;
41568;SDS011;27283;52.504;13.358;2023-07-13T08:35:32;4.22;;;1.70;;
41568;SDS011;27283;52.504;13.358;2023-07-13T08:38:07;5.57;;;2.20;;
41568;SDS011;27283;52.504;13.358;2023-07-13T08:40:41;3.30;;;1.70;;
41568;SDS011;27283;52.504;13.358;2023-07-13T08:43:16;8.45;;;2.17;;
41568;SDS011;27283;52.504;13.358;2023-07-13T08:45:57;5.05;;;2.00;;
41568;SDS011;27283;52.504;13.358;2023-07-13T08:48:39;3.83;;;2.10;;
41568;SDS011;27283;52.504;13.358;2023-07-13T08:51:25;4.72;;;1.80;;
41568;SDS011;27283;52.504;13.358;2023-07-13T08:54:15;7.07;;;2.10;;
41568;SDS011;27283;52.504;13.358;2023-07-13T08:56:54;6.43;;;1.80;;
41568;SDS011;27283;52.504;13.358;2023-07-13T08:59:31;7.18;;;1.75;;
41568;SDS011;27283;52.504;13.358;2023-07-13T09:02:13;4.57;;;1.73;;
41568;SDS011;27283;52.504;13.358;2023-07-13T09:04:59;4.45;;;1.50;;
41568;SDS011;27283;52.504;13.358;2023-07-13T09:07:39;4.72;;;1.60;;
41568;SDS011;27283;52.504;13.358;2023-07-13T09:10:27;4.43;;;1.70;;
41568;SDS011;27283;52.504;13.358;2023-07-13T09:13:07;3.42;;;1.60;;
41568;SDS011;27283;52.504;13.358;2023-07-13T09:15:52;6.68;;;1.55;;
41568;SDS011;27283;52.504;13.358;2023-07-13T09:18:27;9.25;;;1.35;;
41568;SDS011;27283;52.504;13.358;2023-07-13T09:21:05;6.30;;;1.33;;
41568;SDS011;27283;52.504;13.358;2023-07-13T09:23:42;3.78;;;1.40;;
41568;SDS011;27283;52.504;13.358;2023-07-13T09:26:18;4.40;;;1.48;;
41568;SDS011;27283;52.504;13.358;2023-07-13T09:28:59;6.82;;;1.95;;
41568;SDS011;27283;52.504;13.358;2023-07-13T09:31:42;6.32;;;1.73;;
41568;SDS011;27283;52.504;13.358;2023-07-13T09:34:21;5.32;;;1.80;;
41568;SDS011;27283;52.504;13.358;2023-07-13T09:36:54;5.55;;;1.70;;
41568;SDS011;27283;52.504;13.358;2023-07-13T09:39:30;6.40;;;1.52;;
41568;SDS011;27283;52.504;13.358;2023-07-13T09:42:12;6.03;;;1.70;;
41568;SDS011;27283;52.504;13.358;2023-07-13T09:44:52;15.88;;;2.60;;
41568;SDS011;27283;52.504;13.358;2023-07-13T09:47:26;4.18;;;2.50;;
41568;SDS011;27283;52.504;13.358;2023-07-13T09:50:03;10.25;;;2.67;;
41568;SDS011;27283;52.504;13.358;2023-07-13T09:52:42;6.65;;;2.70;;
41568;SDS011;27283;52.504;13.358;2023-07-13T09:55:23;8.55;;;2.50;;
41568;SDS011;27283;52.504;13.358;2023-07-13T09:58:02;6.70;;;2.92;;
41568;SDS011;27283;52.504;13.358;2023-07-13T10:00:37;7.28;;;2.70;;
41568;SDS011;27283;52.504;13.358;2023-07-13T10:03:19;7.40;;;2.70;;
41568;SDS011;27283;52.504;13.358;2023-07-13T10:05:57;7.22;;;3.05;;
41568;SDS011;27283;52.504;13.358;2023-07-13T10:08:41;6.60;;;2.95;;
41568;SDS011;27283;52.504;13.358;2023-07-13T10:11:17;6.47;;;2.97;;
41568;SDS011;27283;52.504;13.358;2023-07-13T10:13:55;6.78;;;3.35;;
41568;SDS011;27283;52.504;13.358;2023-07-13T10:16:31;5.60;;;2.50;;
41568;SDS011;27283;52.504;13.358;2023-07-13T10:19:08;7.38;;;3.05;;
41568;SDS011;27283;52.504;13.358;2023-07-13T10:21:47;8.00;;;2.47;;
41568;SDS011;27283;52.504;13.358;2023-07-13T10:24:26;10.13;;;3.03;;
41568;SDS011;27283;52.504;13.358;2023-07-13T10:27:02;7.75;;;2.80;;
41568;SDS011;27283;52.504;13.358;2023-07-13T10:29:46;5.93;;;2.53;;
41568;SDS011;27283;52.504;13.358;2023-07-13T10:32:23;5.57;;;2.50;;
41568;SDS011;27283;52.504;13.358;2023-07-13T10:34:57;7.88;;;2.60;;
41568;SDS011;27283;52.504;13.358;2023-07-13T10:37:36;6.82;;;2.45;;
41568;SDS011;27283;52.504;13.358;2023-07-13T10:40:16;4.63;;;2.25;;
41568;SDS011;27283;52.504;13.358;2023-07-13T10:42:56;5.75;;;2.47;;
41568;SDS011;27283;52.504;13.358;2023-07-13T10:45:34;10.52;;;2.45;;
41568;SDS011;27283;52.504;13.358;2023-07-13T10:48:10;8.05;;;2.88;;
41568;SDS011;27283;52.504;13.358;2023-07-13T10:50:46;6.80;;;2.33;;
41568;SDS011;27283;52.504;13.358;2023-07-13T10:53:27;7.38;;;2.13;;
41568;SDS011;27283;52.504;13.358;2023-07-13T10:56:02;7.70;;;2.35;;
41568;SDS011;27283;52.504;13.358;2023-07-13T10:58:41;4.65;;;2.30;;
41568;SDS011;27283;52.504;13.358;2023-07-13T11:01:18;7.22;;;2.78;;
41568;SDS011;27283;52.504;13.358;2023-07-13T11:03:53;9.48;;;2.72;;
41568;SDS011;27283;52.504;13.358;2023-07-13T11:06:34;9.35;;;2.90;;
41568;SDS011;27283;52.504;13.358;2023-07-13T11:09:19;6.10;;;3.30;;
41568;SDS011;27283;52.504;13.358;2023-07-13T11:12:09;4.75;;;2.60;;
41568;SDS011;27283;52.504;13.358;2023-07-13T11:15:02;12.63;;;3.00;;
41568;SDS011;27283;52.504;13.358;2023-07-13T11:17:54;8.68;;;2.67;;
41568;SDS011;27283;52.504;13.358;2023-07-13T11:20:31;5.60;;;2.60;;
41568;SDS011;27283;52.504;13.358;2023-07-13T11:29:24;6.82;;;3.13;;
41568;SDS011;27283;52.504;13.358;2023-07-13T11:32:20;7.40;;;3.45;;
41568;SDS011;27283;52.504;13.358;2023-07-13T11:34:59;4.88;;;2.72;;
41568;SDS011;27283;52.504;13.358;2023-07-13T11:37:32;5.88;;;2.65;;
41568;SDS011;27283;52.504;13.358;2023-07-13T11:40:11;10.15;;;2.90;;
41568;SDS011;27283;52.504;13.358;2023-07-13T11:42:46;6.65;;;2.85;;
41568;SDS011;27283;52.504;13.358;2023-07-13T11:45:20;4.72;;;2.47;;
41568;SDS011;27283;52.504;13.358;2023-07-13T11:48:19;5.20;;;2.55;;
41568;SDS011;27283;52.504;13.358;2023-07-13T11:51:00;6.70;;;2.60;;
41568;SDS011;27283;52.504;13.358;2023-07-13T11:53:38;6.53;;;2.58;;
41568;SDS011;27283;52.504;13.358;2023-07-13T11:56:13;8.75;;;2.35;;
41568;SDS011;27283;52.504;13.358;2023-07-13T11:58:48;7.28;;;2.78;;
41568;SDS011;27283;52.504;13.358;2023-07-13T12:01:23;7.55;;;2.53;;
41568;SDS011;27283;52.504;13.358;2023-07-13T12:04:03;5.28;;;2.22;;
41568;SDS011;27283;52.504;13.358;2023-07-13T12:06:40;6.85;;;2.58;;
41568;SDS011;27283;52.504;13.358;2023-07-13T12:09:14;4.95;;;2.25;;
41568;SDS011;27283;52.504;13.358;2023-07-13T12:11:49;19.92;;;2.90;;
41568;SDS011;27283;52.504;13.358;2023-07-13T12:14:23;8.57;;;2.72;;
41568;SDS011;27283;52.504;13.358;2023-07-13T12:16:57;6.43;;;2.50;;
41568;SDS011;27283;52.504;13.358;2023-07-13T12:19:33;6.45;;;2.58;;
41568;SDS011;27283;52.504;13.358;2023-07-13T12:22:11;9.00;;;2.72;;
41568;SDS011;27283;52.504;13.358;2023-07-13T12:24:47;6.88;;;2.50;;
41568;SDS011;27283;52.504;13.358;2023-07-13T12:27:22;7.00;;;2.60;;
41568;SDS011;27283;52.504;13.358;2023-07-13T12:29:59;7.20;;;2.50;;
41568;SDS011;27283;52.504;13.358;2023-07-13T12:32:34;6.75;;;2.40;;
41568;SDS011;27283;52.504;13.358;2023-07-13T12:35:13;8.43;;;2.35;;
41568;SDS011;27283;52.504;13.358;2023-07-13T12:37:53;12.30;;;2.75;;
41568;SDS011;27283;52.504;13.358;2023-07-13T12:40:32;5.65;;;2.38;;
41568;SDS011;27283;52.504;13.358;2023-07-13T12:43:11;7.15;;;2.35;;
41568;SDS011;27283;52.504;13.358;2023-07-13T12:45:56;13.40;;;2.70;;
41568;SDS011;27283;52.504;13.358;2023-07-13T12:48:37;5.65;;;2.05;;
41568;SDS011;27283;52.504;13.358;2023-07-13T12:51:28;6.07;;;2.38;;
41568;SDS011;27283;52.504;13.358;2023-07-13T12:54:10;10.43;;;2.92;;
41568;SDS011;27283;52.504;13.358;2023-07-13T12:56:49;5.10;;;2.17;;
41568;SDS011;27283;52.504;13.358;2023-07-13T12:59:33;5.35;;;2.00;;
41568;SDS011;27283;52.504;13.358;2023-07-13T13:02:17;5.50;;;1.92;;
41568;SDS011;27283;52.504;13.358;2023-07-13T13:05:00;5.15;;;2.10;;
41568;SDS011;27283;52.504;13.358;2023-07-13T13:07:39;10.50;;;2.08;;
41568;SDS011;27283;52.504;13.358;2023-07-13T13:10:17;10.70;;;2.30;;
41568;SDS011;27283;52.504;13.358;2023-07-13T13:12:51;8.07;;;3.03;;
41568;SDS011;27283;52.504;13.358;2023-07-13T13:15:24;8.13;;;2.33;;
41568;SDS011;27283;52.504;13.358;2023-07-13T13:17:59;6.05;;;2.10;;
41568;SDS011;27283;52.504;13.358;2023-07-13T13:20:32;8.27;;;2.28;;
41568;SDS011;27283;52.504;13.358;2023-07-13T13:23:07;9.65;;;2.30;;
41568;SDS011;27283;52.504;13.358;2023-07-13T13:25:49;7.40;;;2.10;;
41568;SDS011;27283;52.504;13.358;2023-07-13T13:28:23;9.32;;;1.92;;
41568;SDS011;27283;52.504;13.358;2023-07-13T13:30:56;5.63;;;1.92;;
41568;SDS011;27283;52.504;13.358;2023-07-13T13:33:30;5.63;;;2.10;;
41568;SDS011;27283;52.504;13.358;2023-07-13T13:36:03;9.48;;;2.00;;
41568;SDS011;27283;52.504;13.358;2023-07-13T13:38:40;7.43;;;2.08;;
41568;SDS011;27283;52.504;13.358;2023-07-13T13:41:16;5.97;;;1.83;;
41568;SDS011;27283;52.504;13.358;2023-07-13T13:43:49;7.60;;;1.98;;
41568;SDS011;27283;52.504;13.358;2023-07-13T13:46:23;3.85;;;1.63;;
41568;SDS011;27283;52.504;13.358;2023-07-13T13:48:59;11.25;;;2.08;;
41568;SDS011;27283;52.504;13.358;2023-07-13T13:51:32;13.13;;;2.17;;
41568;SDS011;27283;52.504;13.358;2023-07-13T13:54:08;10.60;;;2.00;;
41568;SDS011;27283;52.504;13.358;2023-07-13T13:56:47;5.00;;;1.60;;
41568;SDS011;27283;52.504;13.358;2023-07-13T13:59:21;8.20;;;1.90;;
41568;SDS011;27283;52.504;13.358;2023-07-13T14:01:55;7.43;;;2.03;;
41568;SDS011;27283;52.504;13.358;2023-07-13T14:04:30;5.55;;;1.88;;
41568;SDS011;27283;52.504;13.358;2023-07-13T14:07:14;5.47;;;1.60;;
41568;SDS011;27283;52.504;13.358;2023-07-13T14:09:48;7.03;;;1.65;;
41568;SDS011;27283;52.504;13.358;2023-07-13T14:12:24;6.13;;;1.90;;
41568;SDS011;27283;52.504;13.358;2023-07-13T14:14:59;4.53;;;1.40;;
41568;SDS011;27283;52.504;13.358;2023-07-13T14:17:32;4.93;;;1.77;;
41568;SDS011;27283;52.504;13.358;2023-07-13T14:20:12;6.95;;;2.03;;
41568;SDS011;27283;52.504;13.358;2023-07-13T14:22:45;6.00;;;1.58;;
41568;SDS011;27283;52.504;13.358;2023-07-13T14:25:19;7.53;;;1.90;;
41568;SDS011;27283;52.504;13.358;2023-07-13T14:27:56;5.47;;;2.08;;
41568;SDS011;27283;52.504;13.358;2023-07-13T14:30:37;9.02;;;2.10;;
41568;SDS011;27283;52.504;13.358;2023-07-13T14:33:10;6.30;;;1.83;;
41568;SDS011;27283;52.504;13.358;2023-07-13T14:35:44;4.38;;;1.85;;
41568;SDS011;27283;52.504;13.358;2023-07-13T14:38:18;7.47;;;2.28;;
41568;SDS011;27283;52.504;13.358;2023-07-13T14:40:53;5.07;;;2.03;;
41568;SDS011;27283;52.504;13.358;2023-07-13T14:43:30;4.25;;;1.55;;
41568;SDS011;27283;52.504;13.358;2023-07-13T14:46:03;7.30;;;1.98;;
41568;SDS011;27283;52.504;13.358;2023-07-13T14:48:37;7.78;;;1.75;;
41568;SDS011;27283;52.504;13.358;2023-07-13T14:51:12;4.45;;;1.40;;
41568;SDS011;27283;52.504;13.358;2023-07-13T14:53:46;4.15;;;1.67;;
41568;SDS011;27283;52.504;13.358;2023-07-13T14:56:20;4.85;;;1.52;;
41568;SDS011;27283;52.504;13.358;2023-07-13T14:58:56;4.00;;;1.40;;
41568;SDS011;27283;52.504;13.358;2023-07-13T15:01:30;6.43;;;1.38;;
41568;SDS011;27283;52.504;13.358;2023-07-13T15:04:04;4.78;;;1.50;;
41568;SDS011;27283;52.504;13.358;2023-07-13T15:09:28;6.60;;;1.50;;
41568;SDS011;27283;52.504;13.358;2023-07-13T15:12:02;3.58;;;1.27;;
41568;SDS011;27283;52.504;13.358;2023-07-13T15:14:46;3.38;;;1.25;;
41568;SDS011;27283;52.504;13.358;2023-07-13T15:17:24;6.55;;;1.33;;
41568;SDS011;27283;52.504;13.358;2023-07-13T15:20:09;4.68;;;1.48;;
41568;SDS011;27283;52.504;13.358;2023-07-13T15:22:49;5.63;;;1.40;;
41568;SDS011;27283;52.504;13.358;2023-07-13T15:25:24;6.60;;;2.05;;
41568;SDS011;27283;52.504;13.358;2023-07-13T15:28:00;4.07;;;1.50;;
41568;SDS011;27283;52.504;13.358;2023-07-13T15:30:38;3.45;;;1.30;;
41568;SDS011;27283;52.504;13.358;2023-07-13T15:33:16;2.75;;;1.08;;
41568;SDS011;27283;52.504;13.358;2023-07-13T15:35:53;5.53;;;1.73;;
41568;SDS011;27283;52.504;13.358;2023-07-13T15:38:29;4.65;;;1.40;;
41568;SDS011;27283;52.504;13.358;2023-07-13T15:41:04;7.72;;;3.97;;
41568;SDS011;27283;52.504;13.358;2023-07-13T15:43:48;6.03;;;2.20;;